Time;durP1;ratioP1;P1;durP2;ratioP2;P2;SDS_P1;SDS_P2;PMS_P1;PMS_P2;Temp;Humidity;BMP_temperature;BMP_pressure;BME280_temperature;BME280_humidity;BME280_pressure;Samples;Min_cycle;Max_cycle;Signal;HPM_P1;HPM_P2
2023/12/14 00:01:13;;;;;;;3.75;3.25;;;4.70;99.90;;;;;;5021807;28;20504;-73
2023/12/14 00:03:41;;;;;;;3.03;2.63;;;4.70;99.90;;;;;;5016788;28;20045;-72
2023/12/14 00:06:11;;;;;;;2.47;2.33;;;4.70;99.90;;;;;;5016723;28;20037;-73
2023/12/14 00:08:37;;;;;;;4.20;3.15;;;4.70;99.90;;;;;;5013093;28;20138;-73
2023/12/14 00:11:06;;;;;;;2.30;2.10;;;4.70;99.90;;;;;;5002990;28;20069;-72
2023/12/14 00:13:32;;;;;;;3.40;3.00;;;4.60;99.90;;;;;;5018316;28;20174;-73
2023/12/14 00:15:58;;;;;;;4.10;3.80;;;4.60;99.90;;;;;;5018356;28;20088;-73
2023/12/14 00:18:24;;;;;;;3.22;2.30;;;4.60;99.90;;;;;;5025787;28;20068;-73
2023/12/14 00:20:49;;;;;;;3.83;2.65;;;4.60;99.90;;;;;;5016622;28;20037;-73
2023/12/14 00:23:15;;;;;;;3.67;3.33;;;4.60;99.90;;;;;;5021153;28;20045;-73
2023/12/14 00:25:41;;;;;;;9.68;4.28;;;4.60;99.90;;;;;;5019738;28;20050;-73
2023/12/14 00:28:06;;;;;;;3.10;2.70;;;4.60;99.90;;;;;;5021828;28;20045;-73
2023/12/14 00:30:32;;;;;;;5.05;3.95;;;4.60;99.90;;;;;;5029001;28;20119;-73
2023/12/14 00:32:57;;;;;;;2.47;2.28;;;4.60;99.90;;;;;;5024186;28;20050;-73
2023/12/14 00:35:23;;;;;;;1.95;1.80;;;4.60;99.90;;;;;;5023999;28;20054;-73
2023/12/14 00:37:48;;;;;;;3.22;3.03;;;4.60;99.90;;;;;;5019864;28;20048;-73
2023/12/14 00:40:14;;;;;;;3.22;1.92;;;4.60;99.90;;;;;;5014481;28;20458;-73
2023/12/14 00:42:40;;;;;;;2.88;2.42;;;4.60;99.90;;;;;;5014065;28;20127;-72
2023/12/14 00:45:06;;;;;;;5.03;2.72;;;4.60;99.90;;;;;;5017370;28;20068;-73
2023/12/14 00:47:31;;;;;;;2.35;2.25;;;4.60;99.90;;;;;;5024921;28;20048;-72
2023/12/14 00:49:57;;;;;;;3.60;3.33;;;4.60;99.90;;;;;;5016202;28;20049;-72
2023/12/14 00:52:23;;;;;;;3.20;2.85;;;4.60;99.90;;;;;;5024637;28;20455;-73
2023/12/14 00:54:48;;;;;;;8.57;3.30;;;4.50;99.90;;;;;;5022706;28;20048;-73
2023/12/14 00:57:14;;;;;;;8.80;3.33;;;4.50;99.90;;;;;;5030149;28;20128;-72
2023/12/14 00:59:40;;;;;;;3.40;1.73;;;4.50;99.90;;;;;;5027574;28;20402;-73
2023/12/14 01:02:06;;;;;;;5.47;3.22;;;4.50;99.90;;;;;;5020067;28;20091;-73
2023/12/14 01:04:32;;;;;;;2.92;2.28;;;4.50;99.90;;;;;;5021753;28;20487;-73
2023/12/14 01:06:58;;;;;;;2.22;2.08;;;4.50;99.90;;;;;;5026052;28;20046;-72
2023/12/14 01:09:24;;;;;;;6.18;4.35;;;4.50;99.90;;;;;;5016042;28;20053;-72
2023/12/14 01:11:50;;;;;;;2.30;2.13;;;4.50;99.90;;;;;;5023831;28;20038;-73
2023/12/14 01:14:16;;;;;;;6.30;4.45;;;4.50;99.90;;;;;;5017279;28;20414;-73
2023/12/14 01:16:42;;;;;;;2.92;2.72;;;4.50;99.90;;;;;;5011504;28;20050;-73
2023/12/14 01:19:07;;;;;;;9.68;5.10;;;4.50;99.90;;;;;;5023611;28;20518;-72
2023/12/14 01:21:33;;;;;;;5.10;4.13;;;4.50;99.90;;;;;;5019293;28;20049;-72
2023/12/14 01:24:00;;;;;;;5.45;3.70;;;4.50;99.90;;;;;;5022510;28;20048;-72
2023/12/14 01:26:27;;;;;;;3.83;2.83;;;4.40;99.90;;;;;;5016567;28;20506;-73
2023/12/14 01:28:52;;;;;;;3.40;2.17;;;4.40;99.90;;;;;;5019836;28;20129;-73
2023/12/14 01:31:18;;;;;;;6.10;3.88;;;4.40;99.90;;;;;;5020025;28;20534;-72
2023/12/14 01:33:45;;;;;;;4.90;3.45;;;4.40;99.90;;;;;;5020289;28;20049;-73
2023/12/14 01:36:11;;;;;;;3.70;3.45;;;4.40;99.90;;;;;;5019345;28;20601;-72
2023/12/14 01:38:37;;;;;;;4.75;2.17;;;4.40;99.90;;;;;;5022783;28;20045;-73
2023/12/14 01:41:02;;;;;;;4.32;3.75;;;4.30;99.90;;;;;;5023963;28;20056;-73
2023/12/14 01:43:28;;;;;;;3.38;2.85;;;4.30;99.90;;;;;;5025031;28;20045;-73
2023/12/14 01:45:54;;;;;;;4.88;2.17;;;4.30;99.90;;;;;;5025241;28;20139;-73
2023/12/14 01:48:19;;;;;;;3.50;1.55;;;4.30;99.90;;;;;;5022101;28;20128;-73
2023/12/14 01:50:45;;;;;;;4.95;2.72;;;4.30;99.90;;;;;;5024842;28;20136;-73
2023/12/14 01:53:10;;;;;;;10.27;4.88;;;4.30;99.90;;;;;;5022765;28;20530;-73
2023/12/14 01:55:36;;;;;;;8.63;4.43;;;4.30;99.90;;;;;;5023212;28;20037;-73
2023/12/14 01:58:01;;;;;;;5.78;1.48;;;4.30;99.90;;;;;;5023635;28;20042;-73
2023/12/14 02:00:27;;;;;;;3.15;2.95;;;4.30;99.90;;;;;;5023079;28;20049;-73
2023/12/14 02:02:53;;;;;;;4.43;2.33;;;4.30;99.90;;;;;;5026077;28;20152;-73
2023/12/14 02:05:18;;;;;;;5.15;3.95;;;4.30;99.90;;;;;;5024521;28;20057;-73
2023/12/14 02:07:44;;;;;;;2.30;2.08;;;4.30;99.90;;;;;;5026391;28;20045;-73
2023/12/14 02:10:09;;;;;;;5.80;4.20;;;4.30;99.90;;;;;;5018094;28;20041;-73
2023/12/14 02:12:35;;;;;;;2.80;2.40;;;4.30;99.90;;;;;;5021174;28;20052;-73
2023/12/14 02:15:01;;;;;;;1.80;1.70;;;4.30;99.90;;;;;;5023557;28;20037;-73
2023/12/14 02:17:26;;;;;;;6.40;4.05;;;4.30;99.90;;;;;;5022223;28;20566;-73
2023/12/14 02:19:52;;;;;;;3.45;2.80;;;4.30;99.90;;;;;;5019001;28;20057;-73
2023/12/14 02:22:17;;;;;;;2.97;2.75;;;4.30;99.90;;;;;;5024025;28;20152;-72
2023/12/14 02:24:43;;;;;;;9.80;3.58;;;4.30;99.90;;;;;;5018703;28;20060;-73
2023/12/14 02:27:08;;;;;;;3.35;2.80;;;4.30;99.90;;;;;;5022969;28;20089;-72
2023/12/14 02:29:34;;;;;;;8.45;5.03;;;4.30;99.90;;;;;;5025109;28;20057;-73
2023/12/14 02:32:00;;;;;;;1.35;1.35;;;4.30;99.90;;;;;;5024395;28;20063;-73
2023/12/14 02:34:25;;;;;;;4.80;3.72;;;4.30;99.90;;;;;;5017499;28;20037;-73
2023/12/14 02:36:51;;;;;;;4.22;3.03;;;4.30;99.90;;;;;;5020964;28;20053;-73
2023/12/14 02:39:17;;;;;;;1.95;1.85;;;4.30;99.90;;;;;;5019122;28;20587;-73
2023/12/14 02:41:42;;;;;;;9.30;2.58;;;4.30;99.90;;;;;;5015615;28;20046;-72
2023/12/14 02:44:08;;;;;;;3.22;2.95;;;4.30;99.90;;;;;;5018792;28;20406;-73
2023/12/14 02:46:33;;;;;;;3.28;3.03;;;4.30;99.90;;;;;;5017985;28;20049;-72
2023/12/14 02:48:59;;;;;;;7.15;3.13;;;4.30;99.90;;;;;;5022239;28;20053;-73
2023/12/14 02:51:25;;;;;;;7.35;4.93;;;4.30;99.90;;;;;;5018297;28;20056;-73
2023/12/14 02:53:50;;;;;;;7.30;3.30;;;4.30;99.90;;;;;;5011359;28;20045;-73
2023/12/14 02:56:16;;;;;;;4.93;4.32;;;4.30;99.90;;;;;;5020607;28;20056;-73
2023/12/14 02:58:42;;;;;;;3.22;2.22;;;4.30;99.90;;;;;;5016485;28;20132;-73
2023/12/14 03:01:07;;;;;;;3.50;2.95;;;4.30;99.90;;;;;;5014208;28;20045;-73
2023/12/14 03:03:33;;;;;;;4.63;2.92;;;4.30;99.90;;;;;;5018449;28;20053;-73
2023/12/14 03:05:58;;;;;;;3.85;1.73;;;4.30;99.90;;;;;;5014795;28;20084;-73
2023/12/14 03:08:24;;;;;;;6.20;3.10;;;4.30;99.90;;;;;;5015310;28;20077;-73
2023/12/14 03:10:49;;;;;;;6.32;3.63;;;4.30;99.90;;;;;;5010338;28;20061;-73
2023/12/14 03:13:15;;;;;;;2.55;2.35;;;4.30;99.90;;;;;;5013842;28;20156;-73
2023/12/14 03:15:43;;;;;;;4.10;3.55;;;4.30;99.90;;;;;;5022775;28;20045;-73
2023/12/14 03:18:08;;;;;;;2.40;2.30;;;4.30;99.90;;;;;;5019057;28;20463;-73
2023/12/14 03:20:34;;;;;;;1.85;1.75;;;4.30;99.90;;;;;;5010554;28;20050;-73
2023/12/14 03:22:59;;;;;;;5.22;3.55;;;4.30;99.90;;;;;;5013539;28;20064;-73
2023/12/14 03:25:25;;;;;;;7.15;3.33;;;4.30;99.90;;;;;;5014520;28;20057;-73
2023/12/14 03:27:50;;;;;;;2.30;2.10;;;4.30;99.90;;;;;;5009772;28;20111;-73
2023/12/14 03:30:16;;;;;;;4.47;3.33;;;4.30;99.90;;;;;;5016585;28;20038;-73
2023/12/14 03:32:42;;;;;;;6.43;4.15;;;4.30;99.90;;;;;;5019817;28;20050;-73
2023/12/14 03:35:08;;;;;;;3.53;3.20;;;4.30;99.90;;;;;;5015527;28;20056;-73
2023/12/14 03:37:34;;;;;;;3.92;3.67;;;4.30;99.90;;;;;;5018035;28;20030;-73
2023/12/14 03:40:00;;;;;;;2.35;2.15;;;4.30;99.90;;;;;;5022393;28;20096;-74
2023/12/14 03:42:26;;;;;;;4.55;3.55;;;4.30;99.90;;;;;;5013929;28;20532;-73
2023/12/14 03:44:52;;;;;;;3.17;2.45;;;4.30;99.90;;;;;;5017956;28;20046;-73
2023/12/14 03:47:17;;;;;;;9.82;3.13;;;4.30;99.90;;;;;;5012173;28;20061;-73
2023/12/14 03:49:43;;;;;;;2.38;2.10;;;4.30;99.90;;;;;;5012504;28;20059;-73
2023/12/14 03:52:09;;;;;;;1.67;1.58;;;4.30;99.90;;;;;;5022349;28;20457;-73
2023/12/14 03:54:36;;;;;;;3.17;2.33;;;4.30;99.90;;;;;;5020757;28;20132;-73
2023/12/14 03:57:01;;;;;;;2.78;2.17;;;4.30;99.90;;;;;;5025893;28;20059;-73
2023/12/14 03:59:27;;;;;;;4.38;3.15;;;4.30;99.90;;;;;;5025766;28;20041;-73
2023/12/14 04:01:53;;;;;;;7.05;3.13;;;4.20;99.90;;;;;;5024308;28;20060;-73
2023/12/14 04:04:18;;;;;;;2.58;2.38;;;4.30;99.90;;;;;;5021166;28;20090;-73
2023/12/14 04:06:44;;;;;;;1.58;1.42;;;4.30;99.90;;;;;;5023400;28;20414;-72
2023/12/14 04:09:11;;;;;;;5.35;2.90;;;4.20;99.90;;;;;;5019645;28;20042;-73
2023/12/14 04:11:37;;;;;;;2.50;2.13;;;4.30;99.90;;;;;;5023238;28;20057;-73
2023/12/14 04:14:02;;;;;;;3.17;2.88;;;4.20;99.90;;;;;;5022890;28;20051;-73
2023/12/14 04:16:28;;;;;;;2.35;1.75;;;4.30;99.90;;;;;;5027898;28;20495;-73
2023/12/14 04:18:53;;;;;;;3.58;3.28;;;4.30;99.90;;;;;;5025848;28;20388;-72
2023/12/14 04:21:19;;;;;;;5.43;2.72;;;4.30;99.90;;;;;;5029883;28;20081;-73
2023/12/14 04:23:45;;;;;;;2.47;1.98;;;4.30;99.90;;;;;;5025068;28;20057;-73
2023/12/14 04:26:11;;;;;;;8.02;2.05;;;4.20;99.90;;;;;;5027323;28;20804;-73
2023/12/14 04:28:36;;;;;;;5.07;4.22;;;4.30;99.90;;;;;;5026428;28;20056;-73
2023/12/14 04:31:02;;;;;;;2.17;1.98;;;4.20;99.90;;;;;;5022991;28;20045;-73
2023/12/14 04:33:28;;;;;;;2.75;2.47;;;4.30;99.90;;;;;;5023001;28;20077;-73
2023/12/14 04:35:53;;;;;;;2.78;2.58;;;4.30;99.90;;;;;;5028890;28;20045;-73
2023/12/14 04:38:19;;;;;;;5.63;2.92;;;4.20;99.90;;;;;;5028805;28;20084;-73
2023/12/14 04:40:45;;;;;;;3.38;3.08;;;4.30;99.90;;;;;;5022911;28;20045;-73
2023/12/14 04:43:10;;;;;;;5.07;3.42;;;4.30;99.90;;;;;;5024034;28;20044;-73
2023/12/14 04:45:36;;;;;;;10.93;4.10;;;4.30;99.90;;;;;;5024546;28;20042;-73
2023/12/14 04:48:01;;;;;;;3.35;2.78;;;4.30;99.90;;;;;;5015703;28;20053;-73
2023/12/14 04:50:27;;;;;;;5.05;4.53;;;4.30;99.90;;;;;;5025320;28;20057;-73
2023/12/14 04:52:53;;;;;;;4.53;3.50;;;4.30;99.90;;;;;;5025114;28;20057;-73
2023/12/14 04:55:18;;;;;;;7.57;4.60;;;4.30;99.90;;;;;;5019787;28;20502;-73
2023/12/14 04:57:46;;;;;;;7.20;4.85;;;4.30;99.90;;;;;;5019089;28;20088;-73
2023/12/14 05:00:12;;;;;;;8.10;4.30;;;4.30;99.90;;;;;;5015909;28;20451;-72
2023/12/14 05:02:38;;;;;;;11.73;3.95;;;4.30;99.90;;;;;;5011511;28;20046;-73
2023/12/14 05:05:04;;;;;;;6.72;3.72;;;4.30;99.90;;;;;;5024530;28;20106;-73
2023/12/14 05:07:30;;;;;;;14.90;4.88;;;4.30;99.90;;;;;;5021587;28;20078;-73
2023/12/14 05:09:56;;;;;;;2.47;1.65;;;4.30;99.90;;;;;;5013580;28;20149;-73
2023/12/14 05:12:23;;;;;;;4.82;2.35;;;4.30;99.90;;;;;;5017006;28;20049;-73
2023/12/14 05:14:49;;;;;;;4.13;3.22;;;4.30;99.90;;;;;;5014903;28;20124;-73
2023/12/14 05:17:14;;;;;;;5.15;3.33;;;4.30;99.90;;;;;;5012689;28;20494;-72
2023/12/14 05:19:40;;;;;;;2.85;2.58;;;4.30;99.90;;;;;;5011563;28;20838;-73
2023/12/14 05:22:06;;;;;;;5.30;3.85;;;4.30;99.90;;;;;;5013081;28;20044;-73
2023/12/14 05:24:32;;;;;;;5.05;2.85;;;4.30;99.90;;;;;;5016145;28;20042;-73
2023/12/14 05:26:57;;;;;;;3.42;2.50;;;4.20;99.90;;;;;;5019602;28;20049;-73
2023/12/14 05:29:23;;;;;;;3.30;3.03;;;4.30;99.90;;;;;;5020762;28;20060;-73
2023/12/14 05:31:49;;;;;;;2.90;2.28;;;4.30;99.90;;;;;;5017526;28;20037;-73
2023/12/14 05:34:15;;;;;;;3.03;2.78;;;4.20;99.90;;;;;;5013579;28;20071;-73
2023/12/14 05:36:41;;;;;;;6.85;2.42;;;4.20;99.90;;;;;;5020454;28;20050;-73
2023/12/14 05:39:07;;;;;;;3.08;2.80;;;4.20;99.90;;;;;;5022572;28;20521;-73
2023/12/14 05:41:32;;;;;;;2.55;2.35;;;4.20;99.90;;;;;;5023254;28;20058;-73
2023/12/14 05:43:58;;;;;;;2.63;2.42;;;4.20;99.90;;;;;;5015386;28;20513;-73
2023/12/14 05:46:24;;;;;;;2.15;2.00;;;4.20;99.90;;;;;;5012421;28;20140;-73
2023/12/14 05:48:50;;;;;;;4.25;3.03;;;4.30;99.90;;;;;;5012922;28;20045;-73
2023/12/14 05:51:32;;;;;;;2.20;1.90;;;4.30;99.90;;;;;;5023771;28;20053;-73
2023/12/14 05:53:58;;;;;;;8.30;2.35;;;4.20;99.90;;;;;;5027296;28;20191;-72
2023/12/14 05:56:25;;;;;;;2.35;2.25;;;4.20;99.90;;;;;;5019094;28;20128;-73
2023/12/14 05:58:52;;;;;;;4.97;2.05;;;4.20;99.90;;;;;;5026172;28;20041;-73
2023/12/14 06:01:18;;;;;;;7.05;3.15;;;4.30;99.90;;;;;;5022358;28;20089;-73
2023/12/14 06:03:47;;;;;;;2.80;2.60;;;4.20;99.90;;;;;;5012025;28;20613;-73
2023/12/14 06:06:15;;;;;;;1.65;1.50;;;4.20;99.90;;;;;;5017156;28;20521;-73
2023/12/14 06:08:41;;;;;;;2.42;2.30;;;4.20;99.90;;;;;;5027985;28;20410;-73
2023/12/14 06:11:07;;;;;;;5.20;2.85;;;4.20;99.90;;;;;;5025920;28;20041;-73
2023/12/14 06:13:33;;;;;;;3.00;2.53;;;4.20;99.90;;;;;;5025349;28;20533;-73
2023/12/14 06:15:59;;;;;;;1.92;1.60;;;4.20;99.90;;;;;;5019681;28;20132;-73
2023/12/14 06:18:25;;;;;;;1.13;1.13;;;4.20;99.90;;;;;;5025578;28;20140;-73
2023/12/14 06:20:50;;;;;;;4.55;4.15;;;4.20;99.90;;;;;;5026954;28;20038;-73
2023/12/14 06:23:16;;;;;;;4.90;2.92;;;4.20;99.90;;;;;;5023651;28;20046;-73
2023/12/14 06:25:42;;;;;;;1.65;1.55;;;4.20;99.90;;;;;;5014219;28;20136;-73
2023/12/14 06:28:09;;;;;;;2.53;2.30;;;4.20;99.90;;;;;;5026850;28;20111;-73
2023/12/14 06:30:34;;;;;;;2.47;1.95;;;4.20;99.90;;;;;;5027898;28;20045;-73
2023/12/14 06:33:00;;;;;;;4.35;4.00;;;4.20;99.90;;;;;;5020649;28;20057;-73
2023/12/14 06:35:26;;;;;;;2.88;2.65;;;4.20;99.90;;;;;;5027473;28;20049;-73
2023/12/14 06:37:51;;;;;;;2.30;1.85;;;4.20;99.90;;;;;;5023514;28;20056;-72
2023/12/14 06:40:17;;;;;;;1.33;1.25;;;4.20;99.90;;;;;;5024920;28;21214;-73
2023/12/14 06:42:42;;;;;;;5.78;3.17;;;4.20;99.90;;;;;;5025841;28;20084;-73
2023/12/14 06:45:10;;;;;;;10.98;3.72;;;4.20;99.90;;;;;;5024458;28;20050;-74
2023/12/14 06:47:35;;;;;;;2.40;1.63;;;4.20;99.90;;;;;;5013038;28;20042;-73
2023/12/14 06:50:01;;;;;;;6.95;3.70;;;4.20;99.90;;;;;;5018935;28;20410;-72
2023/12/14 06:52:26;;;;;;;2.88;2.63;;;4.20;99.90;;;;;;5023028;28;20080;-73
2023/12/14 06:54:53;;;;;;;1.55;1.30;;;4.20;99.90;;;;;;5017939;28;20119;-73
2023/12/14 06:57:19;;;;;;;1.02;1.02;;;4.20;99.90;;;;;;5019697;28;20046;-73
2023/12/14 06:59:44;;;;;;;1.42;1.33;;;4.20;99.90;;;;;;5015938;28;20054;-73
2023/12/14 07:02:10;;;;;;;1.40;0.93;;;4.20;99.90;;;;;;5018090;28;20049;-73
2023/12/14 07:04:35;;;;;;;1.75;1.08;;;4.20;99.90;;;;;;5012190;28;20054;-73
2023/12/14 07:07:01;;;;;;;1.88;1.75;;;4.20;99.90;;;;;;5014785;28;20073;-73
2023/12/14 07:09:27;;;;;;;1.98;1.88;;;4.20;99.90;;;;;;5009565;28;20044;-73
2023/12/14 07:11:53;;;;;;;1.83;1.65;;;4.20;99.90;;;;;;5016358;28;20100;-73
2023/12/14 07:14:19;;;;;;;1.95;1.85;;;4.20;99.90;;;;;;5020356;28;20053;-73
2023/12/14 07:16:44;;;;;;;2.75;2.55;;;4.20;99.90;;;;;;5008984;28;20856;-73
2023/12/14 07:19:11;;;;;;;1.42;1.38;;;4.20;99.90;;;;;;5014798;28;20216;-73
2023/12/14 07:21:36;;;;;;;2.08;1.88;;;4.20;99.90;;;;;;5016348;28;20466;-73
2023/12/14 07:24:02;;;;;;;1.58;1.48;;;4.20;99.90;;;;;;5009598;28;20045;-73
2023/12/14 07:26:28;;;;;;;3.40;2.05;;;4.20;99.90;;;;;;5022823;28;20065;-73
2023/12/14 07:28:54;;;;;;;0.85;0.82;;;4.20;99.90;;;;;;5021195;28;20052;-73
2023/12/14 07:31:20;;;;;;;2.90;2.28;;;4.30;99.90;;;;;;5014162;28;20060;-73
2023/12/14 07:33:46;;;;;;;1.35;1.25;;;4.20;99.90;;;;;;5014124;28;20563;-73
2023/12/14 07:36:11;;;;;;;1.08;1.08;;;4.20;99.90;;;;;;5014411;28;20076;-73
2023/12/14 07:38:37;;;;;;;2.35;2.17;;;4.30;99.90;;;;;;5023379;28;20073;-73
2023/12/14 07:41:03;;;;;;;1.20;1.20;;;4.20;99.90;;;;;;5010540;28;20058;-73
2023/12/14 07:43:29;;;;;;;0.60;0.60;;;4.30;99.90;;;;;;5017198;28;20041;-72
2023/12/14 07:45:54;;;;;;;1.65;1.55;;;4.30;99.90;;;;;;5022559;28;20041;-73
2023/12/14 07:48:20;;;;;;;1.20;1.10;;;4.30;99.90;;;;;;5023964;28;20423;-73
2023/12/14 07:50:46;;;;;;;0.52;0.52;;;4.30;99.90;;;;;;5014584;28;20057;-73
2023/12/14 07:53:12;;;;;;;0.40;0.40;;;4.30;99.90;;;;;;5017069;28;20553;-73
2023/12/14 07:55:37;;;;;;;1.05;1.05;;;4.30;99.90;;;;;;5019331;28;20057;-73
2023/12/14 07:58:03;;;;;;;0.77;0.77;;;4.30;99.90;;;;;;5015611;28;20088;-72
2023/12/14 08:00:28;;;;;;;0.75;0.60;;;4.30;99.90;;;;;;5020490;28;20038;-73
2023/12/14 08:02:54;;;;;;;1.02;1.02;;;4.30;99.90;;;;;;5018941;28;20120;-73
2023/12/14 08:05:20;;;;;;;0.40;0.40;;;4.30;99.90;;;;;;5026141;28;20124;-73
2023/12/14 08:07:45;;;;;;;0.40;0.40;;;4.30;99.90;;;;;;5024203;28;20132;-73
2023/12/14 08:10:11;;;;;;;1.42;0.85;;;4.30;99.90;;;;;;5021676;28;20608;-73
2023/12/14 08:12:37;;;;;;;0.90;0.90;;;4.30;99.90;;;;;;5025085;28;20111;-73
2023/12/14 08:15:03;;;;;;;1.35;1.30;;;4.40;99.90;;;;;;5022406;28;20128;-73
2023/12/14 08:17:29;;;;;;;0.40;0.40;;;4.40;99.90;;;;;;5018855;28;20056;-73
2023/12/14 08:19:55;;;;;;;0.50;0.50;;;4.40;99.90;;;;;;5023119;28;20038;-73
2023/12/14 08:22:21;;;;;;;0.75;0.73;;;4.40;99.90;;;;;;5011948;28;20054;-73
2023/12/14 08:24:48;;;;;;;0.60;0.60;;;4.40;99.90;;;;;;5018138;28;20084;-73
2023/12/14 08:27:13;;;;;;;0.50;0.50;;;4.40;99.90;;;;;;5009106;28;20448;-73
2023/12/14 08:29:40;;;;;;;0.73;0.73;;;4.40;99.90;;;;;;5019515;28;20136;-73
2023/12/14 08:32:06;;;;;;;1.10;1.00;;;4.50;99.90;;;;;;5016103;28;20058;-73
2023/12/14 08:34:31;;;;;;;0.40;0.40;;;4.50;99.90;;;;;;5017725;28;20075;-73
2023/12/14 08:36:57;;;;;;;2.83;1.08;;;4.50;99.90;;;;;;5018867;28;20053;-73
2023/12/14 08:39:23;;;;;;;0.50;0.50;;;4.50;99.90;;;;;;5031516;28;20128;-73
2023/12/14 08:41:48;;;;;;;0.45;0.45;;;4.50;99.90;;;;;;5017354;28;20042;-73
2023/12/14 08:44:19;;;;;;;1.27;0.70;;;4.50;99.90;;;;;;5017182;28;20104;-73
2023/12/14 08:46:46;;;;;;;0.50;0.50;;;4.50;99.90;;;;;;5025905;28;20057;-73
2023/12/14 08:49:13;;;;;;;0.40;0.40;;;4.50;99.90;;;;;;5019728;28;20501;-72
2023/12/14 08:51:39;;;;;;;0.40;0.40;;;4.50;99.90;;;;;;5022220;28;20056;-74
2023/12/14 08:54:05;;;;;;;0.50;0.50;;;4.50;99.90;;;;;;5022257;28;20038;-73
2023/12/14 08:56:31;;;;;;;0.65;0.65;;;4.60;99.90;;;;;;5023863;28;20073;-73
2023/12/14 08:58:58;;;;;;;0.50;0.50;;;4.60;99.90;;;;;;5023476;28;20125;-73
2023/12/14 09:01:24;;;;;;;4.32;1.05;;;4.60;99.90;;;;;;5019697;28;20075;-73
2023/12/14 09:03:50;;;;;;;0.52;0.52;;;4.50;99.90;;;;;;5011919;28;20038;-73
2023/12/14 09:06:17;;;;;;;1.02;0.80;;;4.60;99.90;;;;;;5017778;28;20048;-73
2023/12/14 09:08:44;;;;;;;0.60;0.60;;;4.60;99.90;;;;;;5023625;28;20593;-73
2023/12/14 09:11:09;;;;;;;0.50;0.50;;;4.60;99.90;;;;;;5013815;28;20100;-73
2023/12/14 09:13:35;;;;;;;1.55;1.00;;;4.60;99.90;;;;;;5019962;28;20041;-73
2023/12/14 09:16:01;;;;;;;1.15;0.90;;;4.60;99.90;;;;;;5019827;28;20077;-73
2023/12/14 09:18:27;;;;;;;0.75;0.50;;;4.60;99.90;;;;;;5017286;28;20049;-73
2023/12/14 09:20:52;;;;;;;0.60;0.60;;;4.70;99.90;;;;;;5017066;28;20111;-73
2023/12/14 09:23:19;;;;;;;1.10;1.00;;;4.70;99.90;;;;;;5017416;28;20073;-73
2023/12/14 09:25:47;;;;;;;1.00;1.00;;;4.70;99.90;;;;;;5015322;28;20068;-73
2023/12/14 09:28:13;;;;;;;1.75;1.65;;;4.70;99.90;;;;;;5019195;28;20056;-73
2023/12/14 09:30:39;;;;;;;1.38;1.27;;;4.70;99.90;;;;;;5019741;28;20053;-73
2023/12/14 09:33:05;;;;;;;1.02;1.02;;;4.60;99.90;;;;;;5016703;28;20459;-73
2023/12/14 09:35:31;;;;;;;0.60;0.60;;;4.60;99.90;;;;;;5021885;28;20440;-73
2023/12/14 09:37:57;;;;;;;0.50;0.50;;;4.70;99.90;;;;;;5026431;28;20125;-74
2023/12/14 09:40:23;;;;;;;1.05;1.02;;;4.70;99.90;;;;;;5022223;28;20049;-74
2023/12/14 09:42:48;;;;;;;0.60;0.60;;;4.70;99.90;;;;;;5016501;28;20053;-74
2023/12/14 09:45:16;;;;;;;0.90;0.90;;;4.70;99.90;;;;;;5002757;28;20427;-73
2023/12/14 09:47:44;;;;;;;1.17;1.08;;;4.70;99.90;;;;;;5041218;28;20049;-73
2023/12/14 09:50:10;;;;;;;2.97;1.25;;;4.70;99.90;;;;;;5019019;28;20049;-73
2023/12/14 09:52:35;;;;;;;0.70;0.70;;;4.70;99.90;;;;;;5023762;28;20038;-74
2023/12/14 09:55:03;;;;;;;0.82;0.82;;;4.80;99.90;;;;;;5020381;28;20052;-74
2023/12/14 09:57:29;;;;;;;1.05;1.05;;;4.80;99.90;;;;;;5022657;28;20075;-74
2023/12/14 09:59:55;;;;;;;0.80;0.80;;;4.80;99.90;;;;;;5022568;28;20049;-74
2023/12/14 10:02:26;;;;;;;0.93;0.85;;;4.90;99.90;;;;;;5024129;28;20049;-72
2023/12/14 10:04:52;;;;;;;0.60;0.60;;;4.90;99.90;;;;;;5024642;28;20482;-73
2023/12/14 10:07:19;;;;;;;0.75;0.75;;;4.90;99.90;;;;;;5017169;28;20083;-72
2023/12/14 10:09:44;;;;;;;1.05;1.05;;;5.00;99.90;;;;;;5013954;28;20137;-72
2023/12/14 10:12:10;;;;;;;3.95;0.90;;;5.00;99.90;;;;;;5012418;28;20041;-72
2023/12/14 10:14:37;;;;;;;0.93;0.93;;;5.00;99.90;;;;;;5019365;28;20053;-72
2023/12/14 10:17:19;;;;;;;2.50;0.90;;;5.00;99.90;;;;;;5015188;28;20519;-72
2023/12/14 10:19:46;;;;;;;1.48;1.02;;;5.00;99.90;;;;;;5020615;28;20557;-72
2023/12/14 10:22:17;;;;;;;0.57;0.57;;;5.00;99.90;;;;;;5023929;28;20120;-72
2023/12/14 10:24:49;;;;;;;0.80;0.80;;;4.90;99.90;;;;;;5021169;28;20240;-72
2023/12/14 10:27:16;;;;;;;1.65;1.42;;;5.00;99.90;;;;;;5019612;28;20128;-72
2023/12/14 10:29:44;;;;;;;0.50;0.50;;;5.00;99.90;;;;;;5025691;28;20045;-72
2023/12/14 10:32:11;;;;;;;0.50;0.50;;;5.00;99.90;;;;;;5013150;28;20084;-72
2023/12/14 10:34:40;;;;;;;1.10;0.77;;;5.10;99.90;;;;;;5015246;28;20077;-72
2023/12/14 10:37:06;;;;;;;1.67;1.58;;;5.10;99.90;;;;;;5023701;28;20041;-72
2023/12/14 10:39:35;;;;;;;1.10;1.10;;;5.10;99.90;;;;;;5017411;28;20436;-72
2023/12/14 10:42:08;;;;;;;0.70;0.70;;;5.20;99.90;;;;;;5018217;28;20495;-73
2023/12/14 10:44:36;;;;;;;0.80;0.80;;;5.20;99.90;;;;;;5019771;28;20050;-73
2023/12/14 10:47:04;;;;;;;1.77;1.23;;;5.20;99.90;;;;;;5018528;28;20395;-73
2023/12/14 10:49:30;;;;;;;0.73;0.70;;;5.30;99.90;;;;;;5022474;28;20041;-73
2023/12/14 10:51:58;;;;;;;1.30;1.20;;;5.30;99.90;;;;;;5027170;28;20050;-72
2023/12/14 10:54:26;;;;;;;0.63;0.52;;;5.30;99.90;;;;;;5018854;28;20053;-73
2023/12/14 10:56:57;;;;;;;0.70;0.70;;;5.30;99.90;;;;;;5017094;28;20049;-71
2023/12/14 10:59:24;;;;;;;0.70;0.70;;;5.30;99.90;;;;;;5012700;28;20056;-72
2023/12/14 11:01:54;;;;;;;0.68;0.68;;;5.40;99.90;;;;;;5015396;28;20123;-72
2023/12/14 11:04:23;;;;;;;0.70;0.70;;;5.40;99.90;;;;;;5019798;28;20137;-72
2023/12/14 11:06:49;;;;;;;0.70;0.70;;;5.40;99.90;;;;;;5011724;28;20499;-72
2023/12/14 11:09:18;;;;;;;0.68;0.68;;;5.50;99.90;;;;;;5018853;28;20037;-73
2023/12/14 11:11:53;;;;;;;0.50;0.50;;;5.50;99.90;;;;;;5011371;28;20721;-73
2023/12/14 11:14:20;;;;;;;0.45;0.45;;;5.50;99.90;;;;;;5013789;28;20085;-73
2023/12/14 11:16:53;;;;;;;1.75;1.42;;;5.50;99.90;;;;;;5016221;28;20049;-73
2023/12/14 11:19:22;;;;;;;0.40;0.40;;;5.60;99.90;;;;;;5019139;28;20550;-73
2023/12/14 11:21:56;;;;;;;0.50;0.50;;;5.60;99.90;;;;;;5018180;28;20419;-72
2023/12/14 11:24:22;;;;;;;0.57;0.57;;;5.60;99.90;;;;;;5010131;28;20129;-72
2023/12/14 11:26:51;;;;;;;1.00;1.00;;;5.60;99.90;;;;;;5008098;28;20111;-72
2023/12/14 11:29:21;;;;;;;0.73;0.73;;;5.60;99.90;;;;;;5022441;28;20076;-73
2023/12/14 11:31:48;;;;;;;0.77;0.70;;;5.60;99.90;;;;;;5024128;28;20818;-73
2023/12/14 11:34:16;;;;;;;0.60;0.60;;;5.60;99.90;;;;;;5018207;28;20049;-73
2023/12/14 11:36:42;;;;;;;0.45;0.45;;;5.60;99.90;;;;;;5020063;28;20989;-73
2023/12/14 11:39:09;;;;;;;0.90;0.90;;;5.70;99.90;;;;;;5022836;28;20148;-76
2023/12/14 11:41:37;;;;;;;0.40;0.40;;;5.70;99.90;;;;;;5020820;28;20052;-74
2023/12/14 11:44:03;;;;;;;1.35;0.82;;;5.70;99.90;;;;;;5013882;28;20077;-74
2023/12/14 11:46:30;;;;;;;0.50;0.50;;;5.70;99.90;;;;;;5017442;28;20080;-74
2023/12/14 11:48:57;;;;;;;0.82;0.82;;;5.80;99.90;;;;;;5026715;28;20423;-74
2023/12/14 11:51:23;;;;;;;1.73;0.90;;;5.80;99.90;;;;;;5024037;28;20057;-74
2023/12/14 11:53:49;;;;;;;1.40;1.30;;;5.80;99.90;;;;;;5014218;28;20135;-73
2023/12/14 11:56:18;;;;;;;0.40;0.40;;;5.80;99.90;;;;;;5015213;28;20510;-74
2023/12/14 11:58:44;;;;;;;0.50;0.50;;;5.80;99.90;;;;;;5019410;28;20052;-74
2023/12/14 12:01:16;;;;;;;1.00;1.00;;;5.80;99.90;;;;;;5017007;28;20081;-73
2023/12/14 12:03:43;;;;;;;1.25;1.00;;;5.80;99.90;;;;;;5004527;28;20053;-73
2023/12/14 12:06:19;;;;;;;0.85;0.65;;;5.80;99.90;;;;;;5001382;28;20138;-73
2023/12/14 12:08:45;;;;;;;0.60;0.60;;;5.80;99.90;;;;;;5000564;28;20050;-73
2023/12/14 12:11:10;;;;;;;1.85;0.70;;;5.80;99.90;;;;;;5004751;28;20092;-73
2023/12/14 12:13:36;;;;;;;0.40;0.40;;;5.80;99.90;;;;;;5002475;28;20056;-73
2023/12/14 12:16:02;;;;;;;0.57;0.57;;;5.80;99.90;;;;;;5006223;28;20088;-73
2023/12/14 12:18:27;;;;;;;0.60;0.60;;;5.80;99.90;;;;;;5003981;28;20246;-74
2023/12/14 12:20:53;;;;;;;0.45;0.45;;;5.90;99.90;;;;;;5009167;28;20042;-73
2023/12/14 12:23:19;;;;;;;0.57;0.57;;;5.90;99.90;;;;;;5010242;28;20080;-73
2023/12/14 12:25:44;;;;;;;1.63;1.13;;;5.90;99.90;;;;;;5004950;28;20144;-73
2023/12/14 12:28:10;;;;;;;0.50;0.50;;;5.90;99.90;;;;;;5001179;28;20110;-73
2023/12/14 12:30:35;;;;;;;1.50;1.40;;;5.90;99.90;;;;;;5015938;28;20481;-73
2023/12/14 12:33:01;;;;;;;0.60;0.60;;;5.90;99.90;;;;;;5004450;28;20129;-73
2023/12/14 12:35:29;;;;;;;1.48;1.38;;;5.90;99.90;;;;;;5017148;28;20118;-73
2023/12/14 12:37:55;;;;;;;;;;;5.90;99.90;;;;;;5010451;28;20054;-73
2023/12/14 12:40:27;;;;;;;0.52;0.52;;;6.00;99.90;;;;;;5022920;28;19962;-73
2023/12/14 12:42:53;;;;;;;0.63;0.63;;;6.00;99.90;;;;;;5020604;28;20046;-73
2023/12/14 12:45:21;;;;;;;0.40;0.40;;;6.00;99.90;;;;;;5018169;28;20060;-73
2023/12/14 12:47:47;;;;;;;0.50;0.50;;;6.00;99.90;;;;;;5016300;28;20053;-73
2023/12/14 12:50:13;;;;;;;3.65;1.00;;;6.00;99.90;;;;;;5015790;28;20041;-73
2023/12/14 12:52:39;;;;;;;0.45;0.45;;;6.00;99.90;;;;;;5018642;28;20064;-73